KJVL

Southern Wisconsin Regional Airport

Janesville, Wisconsin, USA
METAR KJVL 212345Z 03005KT 10SM OVC150 M03/M09 A3062
Observed Flight Rules
Feb-21 @ 23:45 UTC (5 hours ago) Visual Flight Rules
Wind Visibility Clouds
30° at 5 knots 10 miles
  • Overcast at 15,000' AGL
Temperatures Readings
Current -3°C / 27°F
Dewpoint -9°C / 16°F
Humidity 64%
Altimeter 30.62" Hg
Pressure 1037 hPa
Elevation 246
METAR KJVL 212345Z 03005KT 10SM OVC150 M03/M09 A3062
Observed Flight Rules
Feb-21 @ 23:45 UTC
(5 hours ago)
VFR
Wind Visibility
30° at 5 knots 10 miles
Clouds
  • Overcast at 15,000' AGL
Temperature Dewpoint
-3°C / 27°F -9°C / 16°F
Humidity Altimeter Pressure
64% 30.62" Hg 1037 hPa